Terminal Aerodrome Forecast
Issued by NWS Jackson, KY

Home | Current Version | Previous Version | Text Only | Print | Product List | Glossary On
Versions: 1 2 3 4 5 6 7 8 9 10 11 12 13 14 15 16 17
000
FTUS43 KJKL 211744
TAFJKL
TAF
KJKL 211744Z 2118/2218 20004KT P6SM -SHRA OVC040
     FM212200 20004KT P6SM VCTS BKN040CB OVC100
     FM220600 VRB03KT P6SM VCSH OVC025
     FM220900 29004KT P6SM VCSH BKN020
     FM221200 VRB03KT P6SM SCT015=

USA.gov is the U.S. government's official web portal to all federal, state and local government web resources and services.